createdAt,value
2022-11-16T00:00:40.239Z,98419.72
2022-11-16T00:04:42.176Z,98416.94
2022-11-16T00:09:07.055Z,98413.31
2022-11-16T00:13:09.234Z,98406.69
2022-11-16T00:17:10.812Z,98402.28
2022-11-16T00:21:12.359Z,98406.97
2022-11-16T00:25:13.975Z,98406.47
2022-11-16T00:29:17.970Z,98403.72
2022-11-16T00:33:19.557Z,98398.19
2022-11-16T00:37:21.249Z,98397.88
2022-11-16T00:41:23.072Z,98404.53
2022-11-16T00:45:24.617Z,98403.72
2022-11-16T00:49:26.203Z,98400.41
2022-11-16T00:53:27.958Z,98407.59
2022-11-16T00:57:29.616Z,98400.41
2022-11-16T01:01:31.423Z,98412.28
2022-11-16T01:05:33.104Z,98413.41
2022-11-16T01:09:34.836Z,98402.66
2022-11-16T01:13:36.555Z,98401.84
2022-11-16T01:17:40.537Z,98390.25
2022-11-16T01:21:42.087Z,98390.56
2022-11-16T01:25:43.675Z,98385.63
2022-11-16T01:29:45.609Z,98376.81
2022-11-16T01:33:47.312Z,98381.28
2022-11-16T01:37:55.104Z,98377.47
2022-11-16T01:41:57.394Z,98370.59
2022-11-16T01:45:59.369Z,98373.34
2022-11-16T01:50:08.921Z,98373.94
2022-11-16T01:54:13.445Z,98371.78
2022-11-16T01:58:27.436Z,98362.97
2022-11-16T02:26:45.971Z,98345.72
2022-11-16T02:30:51.019Z,98347.06
2022-11-16T02:35:11.288Z,98350.16
2022-11-16T02:39:18.676Z,98345.59
2022-11-16T02:43:29.635Z,98341.59
2022-11-16T02:47:34.458Z,98343.31
2022-11-16T02:51:40.074Z,98346.69
2022-11-16T02:55:41.764Z,98349.72
2022-11-16T02:59:48.974Z,98341.44
2022-11-16T03:04:09.127Z,98347.50
2022-11-16T03:08:36.557Z,98344.56
2022-11-16T03:12:41.124Z,98349.63
2022-11-16T03:16:48.486Z,98337.81
2022-11-16T03:20:57.296Z,98345.88
2022-11-16T03:25:01.120Z,98340.38
2022-11-16T03:29:29.396Z,98339.03
2022-11-16T03:33:47.524Z,98335.13
2022-11-16T03:37:55.034Z,98318.00
2022-11-16T03:42:00.404Z,98302.28
2022-11-16T03:46:02.364Z,98316.94
2022-11-16T03:50:04.538Z,98317.53
2022-11-16T03:54:06.224Z,98327.75
2022-11-16T03:58:09.772Z,98333.88
2022-11-16T04:02:13.823Z,98351.25
2022-11-16T04:06:34.081Z,98344.31
2022-11-16T04:10:54.313Z,98335.72
2022-11-16T04:15:25.439Z,98345.13
2022-11-16T04:19:45.642Z,98353.69
2022-11-16T04:24:07.442Z,98341.91
2022-11-16T04:28:16.267Z,98326.44
2022-11-16T04:32:42.125Z,98335.28
2022-11-16T04:37:02.277Z,98338.84
2022-11-16T04:41:05.097Z,98351.81
2022-11-16T04:45:26.141Z,98344.09
2022-11-16T04:49:28.298Z,98362.88
2022-11-16T04:53:33.188Z,98367.03
2022-11-16T04:57:42.338Z,98367.34
2022-11-16T05:02:03.406Z,98358.47
2022-11-16T05:06:05.280Z,98361.22
2022-11-16T05:10:08.377Z,98373.66
2022-11-16T05:14:10.609Z,98378.38
2022-11-16T05:18:14.543Z,98375.06
2022-11-16T05:22:16.138Z,98377.84
2022-11-16T05:26:17.874Z,98374.28
2022-11-16T05:30:20.972Z,98375.13
2022-11-16T05:34:23.816Z,98376.25
2022-11-16T05:38:25.434Z,98375.13
2022-11-16T05:42:30.963Z,98372.91
2022-11-16T05:46:33.500Z,98382.28
2022-11-16T05:50:42.364Z,98381.19
2022-11-16T05:54:54.148Z,98383.94
2022-11-16T05:58:56.322Z,98383.69
2022-11-16T06:02:58.174Z,98389.22
2022-11-16T06:07:04.283Z,98397.50
2022-11-16T06:11:10.891Z,98406.88
2022-11-16T06:15:14.278Z,98402.13
2022-11-16T06:19:15.945Z,98396.31
2022-11-16T06:23:17.519Z,98399.38
2022-11-16T06:27:21.048Z,98395.25
2022-11-16T06:31:22.811Z,98398.31
2022-11-16T06:35:24.646Z,98409.94
2022-11-16T06:39:26.461Z,98412.16
2022-11-16T06:43:28.397Z,98420.72
2022-11-16T06:47:30.548Z,98419.88
2022-11-16T06:51:33.098Z,98420.47
2022-11-16T06:55:34.885Z,98418.34
2022-11-16T06:59:38.637Z,98423.31
2022-11-16T07:03:40.460Z,98430.81
2022-11-16T07:07:43.226Z,98436.09
2022-11-16T07:11:45.547Z,98436.34
2022-11-16T07:15:49.255Z,98439.31
2022-11-16T07:19:51.338Z,98436.53
2022-11-16T07:23:59.271Z,98442.59
2022-11-16T07:28:01.336Z,98447.25
2022-11-16T07:32:18.543Z,98442.00
2022-11-16T07:36:49.261Z,98450.22
2022-11-16T07:40:52.697Z,98448.00
2022-11-16T07:44:56.790Z,98454.06
2022-11-16T07:48:58.573Z,98445.25
2022-11-16T07:53:35.731Z,98451.88
2022-11-16T07:57:37.417Z,98451.88
2022-11-16T08:01:41.610Z,98462.03
2022-11-16T08:05:47.070Z,98465.25
2022-11-16T08:09:50.071Z,98470.69
2022-11-16T08:13:52.081Z,98481.94
2022-11-16T08:17:58.223Z,98471.97
2022-11-16T08:22:03.747Z,98486.72
2022-11-16T08:26:13.867Z,98490.13
2022-11-16T08:30:15.883Z,98499.31
2022-11-16T08:34:19.797Z,98503.94
2022-11-16T08:38:24.923Z,98512.31
2022-11-16T08:42:26.664Z,98512.91
2022-11-16T08:46:28.992Z,98528.41
2022-11-16T08:51:09.852Z,98529.00
2022-11-16T08:55:01.740Z,98529.41
2022-11-16T08:59:03.679Z,98525.97
2022-11-16T09:03:05.586Z,98526.59
2022-11-16T09:07:07.249Z,98535.59
2022-11-16T09:11:15.880Z,98535.88
2022-11-16T09:15:19.569Z,98542.28
2022-11-16T09:19:21.303Z,98551.69
2022-11-16T09:23:25.493Z,98553.53
2022-11-16T09:27:27.624Z,98547.50
2022-11-16T09:31:34.162Z,98551.72
2022-11-16T09:35:35.737Z,98555.63
2022-11-16T09:39:37.466Z,98553.84
2022-11-16T09:44:07.626Z,98555.03
2022-11-16T09:48:13.634Z,98563.69
2022-11-16T09:52:34.306Z,98553.75
2022-11-16T09:56:40.422Z,98553.06
2022-11-16T10:00:49.829Z,98552.59
2022-11-16T10:05:14.586Z,98558.69
2022-11-16T10:09:16.981Z,98553.50
2022-11-16T10:13:33.179Z,98563.56
2022-11-16T10:17:49.575Z,98562.81
2022-11-16T10:22:28.107Z,98563.22
2022-11-16T10:26:48.210Z,98567.75
2022-11-16T10:31:14.799Z,98568.28
2022-11-16T10:35:30.143Z,98559.34
2022-11-16T10:39:34.064Z,98559.97
2022-11-16T10:43:36.289Z,98551.94
2022-11-16T10:47:50.290Z,98542.50
2022-11-16T10:51:53.767Z,98540.25
2022-11-16T10:56:20.033Z,98544.88
2022-11-16T11:00:44.497Z,98533.41
2022-11-16T11:05:02.326Z,98527.44
2022-11-16T11:09:29.024Z,98521.41
2022-11-16T11:13:35.012Z,98522.81
2022-11-16T11:17:47.271Z,98521.53
2022-11-16T11:21:49.323Z,98517.88
2022-11-16T11:25:53.633Z,98517.88
2022-11-16T11:29:58.827Z,98519.84
2022-11-16T11:34:17.679Z,98519.47
2022-11-16T11:38:19.302Z,98516.72
2022-11-16T11:42:23.318Z,98504.00
2022-11-16T11:46:56.052Z,98505.81
2022-11-16T11:50:56.887Z,98503.84
2022-11-16T11:55:00.389Z,98504.88
2022-11-16T11:59:04.550Z,98496.22
2022-11-16T12:03:24.975Z,98499.72
2022-11-16T12:07:37.079Z,98495.34
2022-11-16T12:11:53.743Z,98487.81
2022-11-16T12:16:02.997Z,98485.25
2022-11-16T12:20:29.482Z,98478.38
2022-11-16T12:24:42.953Z,98475.19
2022-11-16T12:29:02.721Z,98469.63
2022-11-16T12:33:16.414Z,98472.31
2022-11-16T12:37:39.609Z,98467.03
2022-11-16T12:41:53.662Z,98453.03
2022-11-16T12:46:06.122Z,98454.41
2022-11-16T12:50:32.777Z,98448.34
2022-11-16T12:55:19.021Z,98440.78
2022-11-16T12:59:47.149Z,98441.91
2022-11-16T13:04:00.313Z,98434.09
2022-11-16T13:08:12.295Z,98435.72
2022-11-16T13:12:17.302Z,98426.66
2022-11-16T13:16:20.529Z,98421.91
2022-11-16T13:21:06.827Z,98418.56
2022-11-16T13:25:27.140Z,98408.22
2022-11-16T13:29:37.836Z,98406.06
2022-11-16T13:33:51.066Z,98403.03
2022-11-16T13:37:53.619Z,98399.75
2022-11-16T13:42:13.196Z,98387.31
2022-11-16T13:46:40.816Z,98381.63
2022-11-16T13:50:40.097Z,98382.16
2022-11-16T13:54:46.820Z,98373.91
2022-11-16T13:58:55.808Z,98381.22
2022-11-16T14:03:15.691Z,98373.91
2022-11-16T14:07:29.372Z,98371.88
2022-11-16T14:11:34.495Z,98373.22
2022-11-16T14:15:38.051Z,98368.19
2022-11-16T14:19:47.575Z,98354.69
2022-11-16T14:23:49.238Z,98353.78
2022-11-16T14:27:55.594Z,98348.56
2022-11-16T14:31:59.457Z,98345.00
2022-11-16T14:36:03.580Z,98351.44
2022-11-16T14:40:16.861Z,98350.22
2022-11-16T14:44:27.495Z,98349.22
2022-11-16T14:48:29.535Z,98356.69
2022-11-16T14:52:43.982Z,98346.72
2022-11-16T14:56:56.811Z,98348.19
2022-11-16T15:01:00.838Z,98346.03
2022-11-16T15:05:03.237Z,98345.81
2022-11-16T15:09:05.584Z,98339.59
2022-11-16T15:13:07.708Z,98340.19
2022-11-16T15:17:16.312Z,98335.06
2022-11-16T15:21:22.543Z,98334.66
2022-11-16T15:25:35.836Z,98341.63
2022-11-16T15:29:37.878Z,98337.06
2022-11-16T15:33:43.692Z,98333.78
2022-11-16T15:37:45.410Z,98319.00
2022-11-16T15:41:47.642Z,98324.28
2022-11-16T15:45:55.935Z,98318.22
2022-11-16T15:49:57.628Z,98316.28
2022-11-16T15:54:24.237Z,98313.91
2022-11-16T15:58:29.121Z,98300.78
2022-11-16T16:02:32.205Z,98307.44
2022-11-16T16:06:45.754Z,98307.44
2022-11-16T16:10:57.781Z,98296.06
2022-11-16T16:15:22.869Z,98307.66
2022-11-16T16:19:38.566Z,98309.31
2022-11-16T16:23:48.109Z,98296.78
2022-11-16T16:27:49.673Z,98299.06
2022-11-16T16:31:51.303Z,98300.69
2022-11-16T16:35:52.858Z,98296.50
2022-11-16T16:39:54.542Z,98287.06
2022-11-16T16:43:56.152Z,98289.84
2022-11-16T16:47:57.751Z,98288.00
2022-11-16T16:51:59.543Z,98281.66
2022-11-16T16:56:01.783Z,98289.44
2022-11-16T17:00:04.096Z,98280.31
2022-11-16T17:04:06.872Z,98278.16
2022-11-16T17:08:08.475Z,98272.63
2022-11-16T17:12:11.093Z,98269.88
2022-11-16T17:16:12.715Z,98262.19
2022-11-16T17:20:14.748Z,98262.19
2022-11-16T17:24:16.694Z,98258.06
2022-11-16T17:28:18.277Z,98251.81
2022-11-16T17:32:19.834Z,98238.47
2022-11-16T17:36:21.373Z,98240.16
2022-11-16T17:40:22.978Z,98239.34
2022-11-16T17:44:24.592Z,98234.06
2022-11-16T17:48:26.600Z,98237.81
2022-11-16T17:52:29.259Z,98232.13
2022-11-16T17:56:30.980Z,98230.84
2022-11-16T18:00:32.568Z,98225.91
2022-11-16T18:04:34.156Z,98220.41
2022-11-16T18:08:37.378Z,98217.03
2022-11-16T18:12:39.024Z,98219.94
2022-11-16T18:16:44.381Z,98208.31
2022-11-16T18:20:50.785Z,98211.59
2022-11-16T18:24:52.379Z,98206.81
2022-11-16T18:28:54.173Z,98207.03
2022-11-16T18:32:55.723Z,98199.28
2022-11-16T18:36:57.374Z,98192.63
2022-11-16T18:41:19.746Z,98189.78
2022-11-16T18:45:21.670Z,98171.28
2022-11-16T18:49:23.310Z,98174.84
2022-11-16T18:53:25.390Z,98171.59
2022-11-16T18:57:27.014Z,98171.81
2022-11-16T19:01:29.026Z,98157.06
2022-11-16T19:05:30.603Z,98153.22
2022-11-16T19:09:32.294Z,98148.19
2022-11-16T19:13:34.426Z,98158.94
2022-11-16T19:17:48.165Z,98155.66
2022-11-16T19:21:58.450Z,98157.00
2022-11-16T19:26:02.078Z,98154.16
2022-11-16T19:30:04.575Z,98158.47
2022-11-16T19:34:08.145Z,98165.34
2022-11-16T19:38:09.704Z,98155.91
2022-11-16T19:42:11.390Z,98153.16
2022-11-16T19:46:20.387Z,98148.22
2022-11-16T19:50:23.624Z,98143.31
2022-11-16T19:54:25.641Z,98143.09
2022-11-16T19:58:27.357Z,98141.44
2022-11-16T20:02:29.028Z,98137.56
2022-11-16T20:06:36.333Z,98155.19
2022-11-16T20:10:38.136Z,98149.66
2022-11-16T20:14:39.832Z,98152.41
2022-11-16T20:18:42.776Z,98135.31
2022-11-16T20:22:44.656Z,98133.47
2022-11-16T20:26:48.659Z,98114.22
2022-11-16T20:30:50.407Z,98115.63
2022-11-16T20:34:52.005Z,98113.19
2022-11-16T20:38:54.024Z,98114.00
2022-11-16T20:42:59.147Z,98098.78
2022-11-16T20:47:00.731Z,98099.31
2022-11-16T20:51:02.862Z,98097.63
2022-11-16T20:55:04.998Z,98099.66
2022-11-16T20:59:06.587Z,98096.19
2022-11-16T21:03:08.297Z,98091.06
2022-11-16T21:07:10.014Z,98081.44
2022-11-16T21:11:13.597Z,98071.00
2022-11-16T21:15:15.323Z,98077.94
2022-11-16T21:19:17.072Z,98063.09
2022-11-16T21:23:18.722Z,98063.19
2022-11-16T21:27:20.246Z,98058.59
2022-11-16T21:31:25.658Z,98056.50
2022-11-16T21:35:27.315Z,98058.31
2022-11-16T21:39:30.218Z,98056.72
2022-11-16T21:43:34.111Z,98053.22
2022-11-16T21:47:35.899Z,98059.34
2022-11-16T21:51:37.457Z,98056.59
2022-11-16T21:55:39.009Z,98052.09
2022-11-16T21:59:40.814Z,98044.88
2022-11-16T22:03:42.626Z,98036.50
2022-11-16T22:07:44.255Z,98037.56
2022-11-16T22:11:45.825Z,98033.09
2022-11-16T22:15:47.471Z,98028.69
2022-11-16T22:19:49.115Z,98025.94
2022-11-16T22:23:50.742Z,98028.38
2022-11-16T22:28:19.021Z,98025.94
2022-11-16T22:32:15.205Z,98012.63
2022-11-16T22:36:16.742Z,98011.81
2022-11-16T22:40:18.303Z,98011.72
2022-11-16T22:44:23.400Z,98004.47
2022-11-16T22:48:31.326Z,98000.81
2022-11-16T22:52:32.966Z,98003.78
2022-11-16T22:56:34.825Z,97982.75
2022-11-16T23:00:41.839Z,97969.75
2022-11-16T23:04:43.896Z,97970.56
2022-11-16T23:08:45.693Z,97972.19
2022-11-16T23:13:06.070Z,97961.47
2022-11-16T23:17:08.214Z,97942.16
2022-11-16T23:21:28.509Z,97948.28
2022-11-16T23:25:48.697Z,97933.94
2022-11-16T23:29:50.443Z,97935.56
2022-11-16T23:33:52.013Z,97945.50
2022-11-16T23:37:57.601Z,97926.19
2022-11-16T23:42:18.551Z,97917.38
2022-11-16T23:46:20.142Z,97901.97
2022-11-16T23:50:21.692Z,97892.03
2022-11-16T23:54:23.247Z,97885.16
2022-11-16T23:58:24.902Z,97883.34
